sensor_id;sensor_type;location;lat;lon;timestamp;P1;durP1;ratioP1;P2;durP2;ratioP2
23712;SDS011;12035;49.978;8.298;2023-01-23T00:03:44;6.97;;;4.65;;
23712;SDS011;12035;49.978;8.298;2023-01-23T00:08:42;6.95;;;4.78;;
23712;SDS011;12035;49.978;8.298;2023-01-23T00:13:41;6.68;;;4.25;;
23712;SDS011;12035;49.978;8.298;2023-01-23T00:18:39;6.50;;;4.45;;
23712;SDS011;12035;49.978;8.298;2023-01-23T00:23:36;7.88;;;5.03;;
23712;SDS011;12035;49.978;8.298;2023-01-23T00:28:37;7.40;;;4.80;;
23712;SDS011;12035;49.978;8.298;2023-01-23T00:33:34;7.78;;;5.15;;
23712;SDS011;12035;49.978;8.298;2023-01-23T00:38:33;6.53;;;4.82;;
23712;SDS011;12035;49.978;8.298;2023-01-23T00:43:30;7.18;;;4.85;;
23712;SDS011;12035;49.978;8.298;2023-01-23T00:48:27;7.03;;;4.82;;
23712;SDS011;12035;49.978;8.298;2023-01-23T00:53:24;7.25;;;5.15;;
23712;SDS011;12035;49.978;8.298;2023-01-23T00:58:23;7.35;;;4.93;;
23712;SDS011;12035;49.978;8.298;2023-01-23T01:03:21;8.43;;;5.18;;
23712;SDS011;12035;49.978;8.298;2023-01-23T01:08:19;7.65;;;4.82;;
23712;SDS011;12035;49.978;8.298;2023-01-23T01:13:16;8.05;;;5.25;;
23712;SDS011;12035;49.978;8.298;2023-01-23T01:18:17;8.27;;;4.82;;
23712;SDS011;12035;49.978;8.298;2023-01-23T01:23:15;7.78;;;4.88;;
23712;SDS011;12035;49.978;8.298;2023-01-23T01:28:13;7.47;;;5.18;;
23712;SDS011;12035;49.978;8.298;2023-01-23T01:33:10;8.35;;;5.35;;
23712;SDS011;12035;49.978;8.298;2023-01-23T01:38:09;7.05;;;5.00;;
23712;SDS011;12035;49.978;8.298;2023-01-23T01:43:07;8.40;;;5.18;;
23712;SDS011;12035;49.978;8.298;2023-01-23T01:53:12;9.48;;;6.15;;
23712;SDS011;12035;49.978;8.298;2023-01-23T01:58:09;8.32;;;5.28;;
23712;SDS011;12035;49.978;8.298;2023-01-23T02:03:08;8.88;;;5.50;;
23712;SDS011;12035;49.978;8.298;2023-01-23T02:08:06;8.80;;;5.18;;
23712;SDS011;12035;49.978;8.298;2023-01-23T02:13:17;8.13;;;5.25;;
23712;SDS011;12035;49.978;8.298;2023-01-23T02:18:18;7.72;;;5.18;;
23712;SDS011;12035;49.978;8.298;2023-01-23T02:23:19;7.65;;;4.70;;
23712;SDS011;12035;49.978;8.298;2023-01-23T02:28:31;7.45;;;4.55;;
23712;SDS011;12035;49.978;8.298;2023-01-23T02:33:49;8.48;;;4.55;;
23712;SDS011;12035;49.978;8.298;2023-01-23T02:38:53;6.55;;;4.15;;
23712;SDS011;12035;49.978;8.298;2023-01-23T02:43:59;6.72;;;4.30;;
23712;SDS011;12035;49.978;8.298;2023-01-23T02:48:59;6.15;;;4.15;;
23712;SDS011;12035;49.978;8.298;2023-01-23T02:53:56;5.65;;;3.60;;
23712;SDS011;12035;49.978;8.298;2023-01-23T02:58:53;5.75;;;3.83;;
23712;SDS011;12035;49.978;8.298;2023-01-23T03:04:09;6.55;;;4.00;;
23712;SDS011;12035;49.978;8.298;2023-01-23T03:09:07;5.93;;;3.67;;
23712;SDS011;12035;49.978;8.298;2023-01-23T03:14:06;6.03;;;3.85;;
23712;SDS011;12035;49.978;8.298;2023-01-23T03:19:08;6.28;;;4.00;;
23712;SDS011;12035;49.978;8.298;2023-01-23T03:24:08;5.47;;;3.72;;
23712;SDS011;12035;49.978;8.298;2023-01-23T03:29:08;6.35;;;4.05;;
23712;SDS011;12035;49.978;8.298;2023-01-23T03:34:30;7.40;;;4.00;;
23712;SDS011;12035;49.978;8.298;2023-01-23T03:39:27;5.55;;;3.83;;
23712;SDS011;12035;49.978;8.298;2023-01-23T03:44:42;6.35;;;4.05;;
23712;SDS011;12035;49.978;8.298;2023-01-23T03:49:41;6.97;;;3.65;;
23712;SDS011;12035;49.978;8.298;2023-01-23T03:54:38;6.35;;;4.10;;
23712;SDS011;12035;49.978;8.298;2023-01-23T03:59:36;7.32;;;4.32;;
23712;SDS011;12035;49.978;8.298;2023-01-23T04:04:33;7.50;;;4.20;;
23712;SDS011;12035;49.978;8.298;2023-01-23T04:09:32;7.90;;;4.65;;
23712;SDS011;12035;49.978;8.298;2023-01-23T04:14:29;8.07;;;4.90;;
23712;SDS011;12035;49.978;8.298;2023-01-23T04:19:31;7.05;;;4.30;;
23712;SDS011;12035;49.978;8.298;2023-01-23T04:24:29;6.22;;;3.70;;
23712;SDS011;12035;49.978;8.298;2023-01-23T04:29:28;5.75;;;3.50;;
23712;SDS011;12035;49.978;8.298;2023-01-23T04:34:26;6.80;;;3.92;;
23712;SDS011;12035;49.978;8.298;2023-01-23T04:39:23;5.47;;;3.85;;
23712;SDS011;12035;49.978;8.298;2023-01-23T04:44:20;5.75;;;3.85;;
23712;SDS011;12035;49.978;8.298;2023-01-23T04:49:19;6.43;;;3.90;;
23712;SDS011;12035;49.978;8.298;2023-01-23T04:54:18;6.10;;;4.20;;
23712;SDS011;12035;49.978;8.298;2023-01-23T04:59:16;6.15;;;3.70;;
23712;SDS011;12035;49.978;8.298;2023-01-23T05:04:13;6.32;;;3.70;;
23712;SDS011;12035;49.978;8.298;2023-01-23T05:09:11;5.53;;;3.35;;
23712;SDS011;12035;49.978;8.298;2023-01-23T05:14:09;6.10;;;3.97;;
23712;SDS011;12035;49.978;8.298;2023-01-23T05:19:06;5.28;;;3.30;;
23712;SDS011;12035;49.978;8.298;2023-01-23T05:24:03;5.10;;;3.33;;
23712;SDS011;12035;49.978;8.298;2023-01-23T05:29:02;6.30;;;3.45;;
23712;SDS011;12035;49.978;8.298;2023-01-23T05:33:59;6.25;;;3.65;;
23712;SDS011;12035;49.978;8.298;2023-01-23T05:38:56;5.93;;;3.83;;
23712;SDS011;12035;49.978;8.298;2023-01-23T05:43:53;7.20;;;4.40;;
23712;SDS011;12035;49.978;8.298;2023-01-23T05:48:52;6.00;;;3.60;;
23712;SDS011;12035;49.978;8.298;2023-01-23T05:53:49;4.53;;;3.20;;
23712;SDS011;12035;49.978;8.298;2023-01-23T05:58:46;5.70;;;3.63;;
23712;SDS011;12035;49.978;8.298;2023-01-23T06:03:43;6.65;;;3.28;;
23712;SDS011;12035;49.978;8.298;2023-01-23T06:08:42;7.15;;;3.50;;
23712;SDS011;12035;49.978;8.298;2023-01-23T06:13:39;5.63;;;3.30;;
23712;SDS011;12035;49.978;8.298;2023-01-23T06:18:36;5.57;;;3.53;;
23712;SDS011;12035;49.978;8.298;2023-01-23T06:23:33;6.00;;;3.97;;
23712;SDS011;12035;49.978;8.298;2023-01-23T06:28:31;7.07;;;3.47;;
23712;SDS011;12035;49.978;8.298;2023-01-23T06:33:28;5.60;;;3.70;;
23712;SDS011;12035;49.978;8.298;2023-01-23T06:38:26;6.35;;;3.80;;
23712;SDS011;12035;49.978;8.298;2023-01-23T06:43:24;7.07;;;4.25;;
23712;SDS011;12035;49.978;8.298;2023-01-23T06:48:22;6.53;;;4.28;;
23712;SDS011;12035;49.978;8.298;2023-01-23T06:53:20;7.03;;;4.05;;
23712;SDS011;12035;49.978;8.298;2023-01-23T06:58:17;5.85;;;3.70;;
23712;SDS011;12035;49.978;8.298;2023-01-23T07:03:14;6.13;;;3.90;;
23712;SDS011;12035;49.978;8.298;2023-01-23T07:08:14;6.63;;;3.83;;
23712;SDS011;12035;49.978;8.298;2023-01-23T07:13:12;7.15;;;4.30;;
23712;SDS011;12035;49.978;8.298;2023-01-23T07:18:09;6.25;;;4.22;;
23712;SDS011;12035;49.978;8.298;2023-01-23T07:23:07;7.07;;;4.90;;
23712;SDS011;12035;49.978;8.298;2023-01-23T07:28:07;7.15;;;4.60;;
23712;SDS011;12035;49.978;8.298;2023-01-23T07:33:04;7.38;;;4.75;;
23712;SDS011;12035;49.978;8.298;2023-01-23T07:38:02;8.68;;;5.35;;
23712;SDS011;12035;49.978;8.298;2023-01-23T07:42:59;8.82;;;5.38;;
23712;SDS011;12035;49.978;8.298;2023-01-23T07:47:58;6.80;;;4.32;;
23712;SDS011;12035;49.978;8.298;2023-01-23T07:52:55;6.78;;;3.90;;
23712;SDS011;12035;49.978;8.298;2023-01-23T07:57:52;7.93;;;4.55;;
23712;SDS011;12035;49.978;8.298;2023-01-23T08:02:49;8.68;;;4.93;;
23712;SDS011;12035;49.978;8.298;2023-01-23T08:07:47;10.23;;;4.90;;
23712;SDS011;12035;49.978;8.298;2023-01-23T08:12:45;5.30;;;3.70;;
23712;SDS011;12035;49.978;8.298;2023-01-23T08:17:42;6.35;;;4.18;;
23712;SDS011;12035;49.978;8.298;2023-01-23T08:22:39;6.40;;;3.97;;
23712;SDS011;12035;49.978;8.298;2023-01-23T08:27:38;7.63;;;4.47;;
23712;SDS011;12035;49.978;8.298;2023-01-23T08:32:35;7.45;;;4.35;;
23712;SDS011;12035;49.978;8.298;2023-01-23T08:37:32;7.22;;;4.55;;
23712;SDS011;12035;49.978;8.298;2023-01-23T08:42:30;7.05;;;4.57;;
23712;SDS011;12035;49.978;8.298;2023-01-23T08:47:30;12.30;;;5.80;;
23712;SDS011;12035;49.978;8.298;2023-01-23T08:52:30;7.93;;;4.97;;
23712;SDS011;12035;49.978;8.298;2023-01-23T08:57:28;9.07;;;4.95;;
23712;SDS011;12035;49.978;8.298;2023-01-23T09:02:26;7.63;;;4.80;;
23712;SDS011;12035;49.978;8.298;2023-01-23T09:07:24;7.45;;;5.10;;
23712;SDS011;12035;49.978;8.298;2023-01-23T09:12:21;7.90;;;5.10;;
23712;SDS011;12035;49.978;8.298;2023-01-23T09:17:18;7.93;;;5.10;;
23712;SDS011;12035;49.978;8.298;2023-01-23T09:22:16;7.28;;;5.00;;
23712;SDS011;12035;49.978;8.298;2023-01-23T09:27:14;7.60;;;4.80;;
23712;SDS011;12035;49.978;8.298;2023-01-23T09:32:12;8.25;;;5.30;;
23712;SDS011;12035;49.978;8.298;2023-01-23T09:37:09;8.75;;;5.18;;
23712;SDS011;12035;49.978;8.298;2023-01-23T09:42:06;7.47;;;4.90;;
23712;SDS011;12035;49.978;8.298;2023-01-23T09:47:12;7.88;;;5.28;;
23712;SDS011;12035;49.978;8.298;2023-01-23T09:52:14;7.90;;;4.80;;
23712;SDS011;12035;49.978;8.298;2023-01-23T09:57:17;7.55;;;5.28;;
23712;SDS011;12035;49.978;8.298;2023-01-23T10:02:20;9.93;;;5.55;;
23712;SDS011;12035;49.978;8.298;2023-01-23T10:07:26;8.50;;;5.75;;
23712;SDS011;12035;49.978;8.298;2023-01-23T10:12:46;7.38;;;5.00;;
23712;SDS011;12035;49.978;8.298;2023-01-23T10:17:54;7.47;;;4.88;;
23712;SDS011;12035;49.978;8.298;2023-01-23T10:23:03;8.05;;;5.20;;
23712;SDS011;12035;49.978;8.298;2023-01-23T10:28:21;8.70;;;5.75;;
23712;SDS011;12035;49.978;8.298;2023-01-23T10:33:26;8.57;;;5.35;;
23712;SDS011;12035;49.978;8.298;2023-01-23T10:38:34;7.97;;;5.25;;
23712;SDS011;12035;49.978;8.298;2023-01-23T10:43:41;8.98;;;5.90;;
23712;SDS011;12035;49.978;8.298;2023-01-23T10:48:43;9.25;;;5.20;;
23712;SDS011;12035;49.978;8.298;2023-01-23T10:53:41;7.93;;;5.15;;
23712;SDS011;12035;49.978;8.298;2023-01-23T10:58:38;8.65;;;5.47;;
23712;SDS011;12035;49.978;8.298;2023-01-23T11:03:37;8.98;;;5.53;;
23712;SDS011;12035;49.978;8.298;2023-01-23T11:08:42;8.10;;;5.30;;
23712;SDS011;12035;49.978;8.298;2023-01-23T11:13:49;7.55;;;4.80;;
23712;SDS011;12035;49.978;8.298;2023-01-23T11:19:04;9.40;;;5.78;;
23712;SDS011;12035;49.978;8.298;2023-01-23T11:24:15;8.98;;;5.38;;
23712;SDS011;12035;49.978;8.298;2023-01-23T11:29:19;8.75;;;5.10;;
23712;SDS011;12035;49.978;8.298;2023-01-23T11:34:20;9.98;;;5.32;;
23712;SDS011;12035;49.978;8.298;2023-01-23T11:39:26;7.78;;;4.95;;
23712;SDS011;12035;49.978;8.298;2023-01-23T11:44:36;9.88;;;5.60;;
23712;SDS011;12035;49.978;8.298;2023-01-23T11:49:50;7.75;;;5.18;;
23712;SDS011;12035;49.978;8.298;2023-01-23T11:55:32;9.02;;;4.78;;
23712;SDS011;12035;49.978;8.298;2023-01-23T12:00:41;8.38;;;5.10;;
23712;SDS011;12035;49.978;8.298;2023-01-23T12:05:56;9.43;;;4.85;;
23712;SDS011;12035;49.978;8.298;2023-01-23T12:11:22;8.55;;;5.25;;
23712;SDS011;12035;49.978;8.298;2023-01-23T12:16:21;7.25;;;5.03;;
23712;SDS011;12035;49.978;8.298;2023-01-23T12:21:28;7.95;;;4.90;;
23712;SDS011;12035;49.978;8.298;2023-01-23T12:26:34;9.35;;;5.35;;
23712;SDS011;12035;49.978;8.298;2023-01-23T12:31:50;7.65;;;4.70;;
23712;SDS011;12035;49.978;8.298;2023-01-23T12:37:09;8.63;;;4.40;;
23712;SDS011;12035;49.978;8.298;2023-01-23T12:42:25;8.38;;;4.55;;
23712;SDS011;12035;49.978;8.298;2023-01-23T12:47:29;7.60;;;4.40;;
23712;SDS011;12035;49.978;8.298;2023-01-23T12:52:34;6.63;;;4.10;;
23712;SDS011;12035;49.978;8.298;2023-01-23T12:57:37;7.57;;;4.68;;
23712;SDS011;12035;49.978;8.298;2023-01-23T13:02:36;6.25;;;3.95;;
23712;SDS011;12035;49.978;8.298;2023-01-23T13:07:45;7.15;;;4.50;;
23712;SDS011;12035;49.978;8.298;2023-01-23T13:12:52;8.45;;;4.15;;
23712;SDS011;12035;49.978;8.298;2023-01-23T13:17:56;6.20;;;4.00;;
23712;SDS011;12035;49.978;8.298;2023-01-23T13:23:00;6.88;;;4.30;;
23712;SDS011;12035;49.978;8.298;2023-01-23T13:28:29;7.10;;;4.20;;
23712;SDS011;12035;49.978;8.298;2023-01-23T13:44:20;7.25;;;4.97;;
23712;SDS011;12035;49.978;8.298;2023-01-23T13:49:22;8.20;;;5.07;;
23712;SDS011;12035;49.978;8.298;2023-01-23T13:54:47;9.30;;;5.75;;
23712;SDS011;12035;49.978;8.298;2023-01-23T14:00:02;9.27;;;5.53;;
23712;SDS011;12035;49.978;8.298;2023-01-23T14:05:09;9.30;;;5.85;;
23712;SDS011;12035;49.978;8.298;2023-01-23T14:10:18;8.80;;;5.55;;
23712;SDS011;12035;49.978;8.298;2023-01-23T14:15:20;9.60;;;5.40;;
23712;SDS011;12035;49.978;8.298;2023-01-23T14:25:36;9.55;;;5.32;;
23712;SDS011;12035;49.978;8.298;2023-01-23T14:30:33;9.75;;;6.03;;
23712;SDS011;12035;49.978;8.298;2023-01-23T14:35:31;8.88;;;5.55;;
23712;SDS011;12035;49.978;8.298;2023-01-23T14:40:28;12.43;;;6.13;;
23712;SDS011;12035;49.978;8.298;2023-01-23T14:45:28;8.82;;;5.28;;
23712;SDS011;12035;49.978;8.298;2023-01-23T14:50:27;10.40;;;6.22;;
23712;SDS011;12035;49.978;8.298;2023-01-23T14:55:26;9.15;;;4.97;;
23712;SDS011;12035;49.978;8.298;2023-01-23T15:00:25;6.45;;;4.50;;
23712;SDS011;12035;49.978;8.298;2023-01-23T15:05:24;6.28;;;4.10;;
23712;SDS011;12035;49.978;8.298;2023-01-23T15:10:24;8.20;;;4.60;;
23712;SDS011;12035;49.978;8.298;2023-01-23T15:15:24;7.68;;;4.60;;
23712;SDS011;12035;49.978;8.298;2023-01-23T15:20:28;9.48;;;4.85;;
23712;SDS011;12035;49.978;8.298;2023-01-23T15:25:30;6.18;;;3.97;;
23712;SDS011;12035;49.978;8.298;2023-01-23T15:30:38;6.95;;;4.55;;
23712;SDS011;12035;49.978;8.298;2023-01-23T15:35:41;7.55;;;4.40;;
23712;SDS011;12035;49.978;8.298;2023-01-23T15:40:39;6.32;;;4.30;;
23712;SDS011;12035;49.978;8.298;2023-01-23T15:45:36;8.93;;;4.88;;
23712;SDS011;12035;49.978;8.298;2023-01-23T15:50:34;7.70;;;4.53;;
23712;SDS011;12035;49.978;8.298;2023-01-23T15:55:33;8.48;;;4.72;;
23712;SDS011;12035;49.978;8.298;2023-01-23T16:00:30;9.65;;;5.28;;
23712;SDS011;12035;49.978;8.298;2023-01-23T16:05:29;8.48;;;5.05;;
23712;SDS011;12035;49.978;8.298;2023-01-23T16:10:30;8.70;;;4.90;;
23712;SDS011;12035;49.978;8.298;2023-01-23T16:15:33;9.88;;;5.43;;
23712;SDS011;12035;49.978;8.298;2023-01-23T16:20:34;6.50;;;4.05;;
23712;SDS011;12035;49.978;8.298;2023-01-23T16:25:36;9.02;;;5.07;;
23712;SDS011;12035;49.978;8.298;2023-01-23T16:30:34;8.43;;;4.90;;
23712;SDS011;12035;49.978;8.298;2023-01-23T16:35:31;7.82;;;4.68;;
23712;SDS011;12035;49.978;8.298;2023-01-23T16:40:28;8.70;;;5.30;;
23712;SDS011;12035;49.978;8.298;2023-01-23T16:45:28;13.50;;;5.65;;
23712;SDS011;12035;49.978;8.298;2023-01-23T16:50:27;9.48;;;5.63;;
23712;SDS011;12035;49.978;8.298;2023-01-23T16:55:30;9.35;;;5.80;;
23712;SDS011;12035;49.978;8.298;2023-01-23T17:00:32;9.05;;;5.28;;
23712;SDS011;12035;49.978;8.298;2023-01-23T17:05:30;9.32;;;5.40;;
23712;SDS011;12035;49.978;8.298;2023-01-23T17:10:27;8.20;;;4.72;;
23712;SDS011;12035;49.978;8.298;2023-01-23T17:15:25;8.60;;;4.93;;
23712;SDS011;12035;49.978;8.298;2023-01-23T17:20:26;10.18;;;5.80;;
23712;SDS011;12035;49.978;8.298;2023-01-23T17:25:24;9.95;;;5.80;;
23712;SDS011;12035;49.978;8.298;2023-01-23T17:30:22;10.18;;;6.75;;
23712;SDS011;12035;49.978;8.298;2023-01-23T17:35:21;9.48;;;5.78;;
23712;SDS011;12035;49.978;8.298;2023-01-23T17:40:23;7.40;;;4.85;;
23712;SDS011;12035;49.978;8.298;2023-01-23T17:45:20;7.47;;;5.05;;
23712;SDS011;12035;49.978;8.298;2023-01-23T17:50:20;8.70;;;5.13;;
23712;SDS011;12035;49.978;8.298;2023-01-23T17:55:20;7.93;;;5.57;;
23712;SDS011;12035;49.978;8.298;2023-01-23T18:00:22;8.07;;;5.05;;
23712;SDS011;12035;49.978;8.298;2023-01-23T18:05:21;9.55;;;5.70;;
23712;SDS011;12035;49.978;8.298;2023-01-23T18:10:18;9.10;;;5.38;;
23712;SDS011;12035;49.978;8.298;2023-01-23T18:15:20;8.98;;;5.60;;
23712;SDS011;12035;49.978;8.298;2023-01-23T18:20:26;10.32;;;5.93;;
23712;SDS011;12035;49.978;8.298;2023-01-23T18:25:24;9.00;;;5.47;;
23712;SDS011;12035;49.978;8.298;2023-01-23T18:30:31;9.70;;;5.55;;
23712;SDS011;12035;49.978;8.298;2023-01-23T18:35:48;9.35;;;6.22;;
23712;SDS011;12035;49.978;8.298;2023-01-23T18:41:22;9.15;;;5.68;;
23712;SDS011;12035;49.978;8.298;2023-01-23T18:46:25;9.25;;;5.55;;
23712;SDS011;12035;49.978;8.298;2023-01-23T18:51:31;9.73;;;6.00;;
23712;SDS011;12035;49.978;8.298;2023-01-23T18:56:36;9.82;;;5.90;;
23712;SDS011;12035;49.978;8.298;2023-01-23T19:01:48;10.40;;;5.72;;
23712;SDS011;12035;49.978;8.298;2023-01-23T19:06:49;10.25;;;5.50;;
23712;SDS011;12035;49.978;8.298;2023-01-23T19:11:50;11.48;;;6.88;;
23712;SDS011;12035;49.978;8.298;2023-01-23T19:16:59;10.75;;;6.45;;
23712;SDS011;12035;49.978;8.298;2023-01-23T19:22:07;10.70;;;5.68;;
23712;SDS011;12035;49.978;8.298;2023-01-23T19:27:09;10.75;;;6.30;;
23712;SDS011;12035;49.978;8.298;2023-01-23T19:32:16;10.90;;;6.65;;
23712;SDS011;12035;49.978;8.298;2023-01-23T19:37:14;12.93;;;6.57;;
23712;SDS011;12035;49.978;8.298;2023-01-23T19:42:12;11.43;;;6.85;;
23712;SDS011;12035;49.978;8.298;2023-01-23T19:47:10;13.60;;;7.95;;
23712;SDS011;12035;49.978;8.298;2023-01-23T19:52:10;12.73;;;7.78;;
23712;SDS011;12035;49.978;8.298;2023-01-23T19:57:10;16.88;;;8.15;;
23712;SDS011;12035;49.978;8.298;2023-01-23T20:02:09;13.15;;;8.07;;
23712;SDS011;12035;49.978;8.298;2023-01-23T20:07:15;14.70;;;7.90;;
23712;SDS011;12035;49.978;8.298;2023-01-23T20:12:12;14.05;;;8.02;;
23712;SDS011;12035;49.978;8.298;2023-01-23T20:17:09;13.75;;;8.40;;
23712;SDS011;12035;49.978;8.298;2023-01-23T20:22:06;13.63;;;8.18;;
23712;SDS011;12035;49.978;8.298;2023-01-23T20:27:04;13.68;;;7.75;;
23712;SDS011;12035;49.978;8.298;2023-01-23T20:32:02;13.13;;;7.80;;
23712;SDS011;12035;49.978;8.298;2023-01-23T20:36:59;15.93;;;9.10;;
23712;SDS011;12035;49.978;8.298;2023-01-23T20:41:56;16.10;;;8.85;;
23712;SDS011;12035;49.978;8.298;2023-01-23T20:46:55;14.25;;;8.18;;
23712;SDS011;12035;49.978;8.298;2023-01-23T20:51:52;15.05;;;8.48;;
23712;SDS011;12035;49.978;8.298;2023-01-23T20:57:10;14.90;;;8.35;;
23712;SDS011;12035;49.978;8.298;2023-01-23T21:02:09;13.88;;;7.90;;
23712;SDS011;12035;49.978;8.298;2023-01-23T21:07:26;13.68;;;7.82;;
23712;SDS011;12035;49.978;8.298;2023-01-23T21:12:24;13.25;;;7.22;;
23712;SDS011;12035;49.978;8.298;2023-01-23T21:17:23;13.95;;;8.15;;
23712;SDS011;12035;49.978;8.298;2023-01-23T21:22:20;13.75;;;7.57;;
23712;SDS011;12035;49.978;8.298;2023-01-23T21:27:19;12.20;;;7.18;;
23712;SDS011;12035;49.978;8.298;2023-01-23T21:32:17;11.60;;;6.95;;
23712;SDS011;12035;49.978;8.298;2023-01-23T21:37:16;11.48;;;6.50;;
23712;SDS011;12035;49.978;8.298;2023-01-23T21:42:14;11.82;;;6.72;;
23712;SDS011;12035;49.978;8.298;2023-01-23T21:47:11;13.48;;;7.45;;
23712;SDS011;12035;49.978;8.298;2023-01-23T21:52:08;11.45;;;6.75;;
23712;SDS011;12035;49.978;8.298;2023-01-23T21:57:07;11.18;;;6.78;;
23712;SDS011;12035;49.978;8.298;2023-01-23T22:02:04;11.38;;;6.55;;
23712;SDS011;12035;49.978;8.298;2023-01-23T22:07:01;13.23;;;6.97;;
23712;SDS011;12035;49.978;8.298;2023-01-23T22:11:58;10.70;;;6.30;;
23712;SDS011;12035;49.978;8.298;2023-01-23T22:16:56;11.50;;;7.18;;
23712;SDS011;12035;49.978;8.298;2023-01-23T22:21:53;12.25;;;7.65;;
23712;SDS011;12035;49.978;8.298;2023-01-23T22:26:51;11.75;;;6.68;;
23712;SDS011;12035;49.978;8.298;2023-01-23T22:31:48;12.68;;;7.15;;
23712;SDS011;12035;49.978;8.298;2023-01-23T22:36:47;12.02;;;7.38;;
23712;SDS011;12035;49.978;8.298;2023-01-23T22:41:44;10.95;;;6.88;;
23712;SDS011;12035;49.978;8.298;2023-01-23T22:46:42;13.25;;;7.70;;
23712;SDS011;12035;49.978;8.298;2023-01-23T22:51:39;13.63;;;8.25;;
23712;SDS011;12035;49.978;8.298;2023-01-23T22:56:38;14.48;;;7.60;;
23712;SDS011;12035;49.978;8.298;2023-01-23T23:01:38;11.27;;;7.28;;
23712;SDS011;12035;49.978;8.298;2023-01-23T23:06:35;13.43;;;7.53;;
23712;SDS011;12035;49.978;8.298;2023-01-23T23:11:32;11.02;;;6.97;;
23712;SDS011;12035;49.978;8.298;2023-01-23T23:16:32;12.40;;;7.05;;
23712;SDS011;12035;49.978;8.298;2023-01-23T23:21:30;11.23;;;6.10;;
23712;SDS011;12035;49.978;8.298;2023-01-23T23:26:30;11.13;;;6.63;;
23712;SDS011;12035;49.978;8.298;2023-01-23T23:31:27;10.50;;;6.65;;
23712;SDS011;12035;49.978;8.298;2023-01-23T23:36:26;11.20;;;6.53;;
23712;SDS011;12035;49.978;8.298;2023-01-23T23:41:23;10.48;;;6.97;;
23712;SDS011;12035;49.978;8.298;2023-01-23T23:46:21;11.20;;;7.07;;
23712;SDS011;12035;49.978;8.298;2023-01-23T23:51:18;12.15;;;6.93;;
23712;SDS011;12035;49.978;8.298;2023-01-23T23:56:19;12.68;;;7.22;;
